createdAt,value
2017-05-19T00:00:10.147Z,82.82
2017-05-19T00:00:50.650Z,83.4
2017-05-19T00:01:31.031Z,83.2
2017-05-19T00:02:12.293Z,82.82
2017-05-19T00:02:53.974Z,83.2
2017-05-19T00:03:34.450Z,83.11
2017-05-19T00:04:14.851Z,82.92
2017-05-19T00:04:55.536Z,83.2
2017-05-19T00:05:35.928Z,83.11
2017-05-19T00:06:16.540Z,82.82
2017-05-19T00:06:56.940Z,82.73
2017-05-19T00:07:37.384Z,83.11
2017-05-19T00:08:17.842Z,83.11
2017-05-19T00:08:59.764Z,82.92
2017-05-19T00:09:40.492Z,82.63
2017-05-19T00:10:27.398Z,82.24
2017-05-19T00:11:07.812Z,82.24
2017-05-19T00:11:48.323Z,82.24
2017-05-19T00:12:28.711Z,82.15
2017-05-19T00:13:09.194Z,82.24
2017-05-19T00:13:49.723Z,81.96
2017-05-19T00:14:30.212Z,82.24
2017-05-19T00:15:10.735Z,81.48
2017-05-19T00:15:51.110Z,81.38
2017-05-19T00:16:31.541Z,81.38
2017-05-19T00:17:12.041Z,81.48
2017-05-19T00:17:52.430Z,81.38
2017-05-19T00:18:33.002Z,81.38
2017-05-19T00:19:14.086Z,81.52
2017-05-19T00:19:54.469Z,81.28
2017-05-19T00:20:35.077Z,81.96
2017-05-19T00:21:15.553Z,81.57
2017-05-19T00:21:56.916Z,82.15
2017-05-19T00:22:38.451Z,82.34
2017-05-19T00:23:18.931Z,82.05
2017-05-19T00:23:59.381Z,82.63
2017-05-19T00:24:39.924Z,82.15
2017-05-19T00:25:21.635Z,82.53
2017-05-19T00:26:03.274Z,82.53
2017-05-19T00:26:43.738Z,83.01
2017-05-19T00:27:25.790Z,83.01
2017-05-19T00:28:06.200Z,83.01
2017-05-19T00:28:48.407Z,83.11
2017-05-19T00:29:28.774Z,83.01
2017-05-19T00:30:09.248Z,82.92
2017-05-19T00:30:49.729Z,83.01
2017-05-19T00:31:30.135Z,82.34
2017-05-19T00:32:10.567Z,82.92
2017-05-19T00:32:51.045Z,83.11
2017-05-19T00:33:31.676Z,83.11
2017-05-19T00:34:12.719Z,82.92
2017-05-19T00:34:52.658Z,83.11
2017-05-19T00:35:33.087Z,82.73
2017-05-19T00:36:13.631Z,82.92
2017-05-19T00:36:54.073Z,83.01
2017-05-19T00:37:34.644Z,82.53
2017-05-19T00:38:15.018Z,83.78
2017-05-19T00:38:55.471Z,83.69
2017-05-19T00:39:35.854Z,83.3
2017-05-19T00:40:16.296Z,83.2
2017-05-19T00:40:56.857Z,83.97
2017-05-19T00:41:37.390Z,83.49
2017-05-19T00:42:17.858Z,82.92
2017-05-19T00:42:58.310Z,83.11
2017-05-19T00:43:38.812Z,82.73
2017-05-19T00:44:19.247Z,82.53
2017-05-19T00:44:59.721Z,83.78
2017-05-19T00:45:40.173Z,86.28
2017-05-19T00:46:20.597Z,85.22
2017-05-19T00:47:01.040Z,85.51
2017-05-19T00:47:41.475Z,84.74
2017-05-19T00:48:21.918Z,84.84
2017-05-19T00:49:02.371Z,84.03
2017-05-19T00:49:42.825Z,84.94
2017-05-19T00:50:23.263Z,84.7
2017-05-19T00:51:03.746Z,84.8
2017-05-19T00:51:44.360Z,84.7
2017-05-19T00:52:24.807Z,85.85
2017-05-19T00:53:05.266Z,87.1
2017-05-19T00:53:45.733Z,88.25
2017-05-19T00:54:27.200Z,88.06
2017-05-19T00:55:08.364Z,88.02
2017-05-19T00:55:52.382Z,88.69
2017-05-19T00:56:37.625Z,89.55
2017-05-19T00:58:24.683Z,91.76
2017-05-19T00:59:05.187Z,91.33
2017-05-19T00:59:45.607Z,92.86
2017-05-19T01:00:26.053Z,92.77
2017-05-19T01:01:07.351Z,93.06
2017-05-19T01:01:48.862Z,94.02
2017-05-19T01:02:29.336Z,92.86
2017-05-19T01:03:09.787Z,91.91
2017-05-19T01:03:50.854Z,93.63
2017-05-19T01:04:31.310Z,94.02
2017-05-19T01:05:11.765Z,92.86
2017-05-19T01:05:52.188Z,90.56
2017-05-19T01:08:12.734Z,91.91
2017-05-19T01:08:52.928Z,91.91
2017-05-19T01:09:33.356Z,91.05
2017-05-19T01:10:13.773Z,92.1
2017-05-19T01:10:54.241Z,91.72
2017-05-19T01:11:34.865Z,91.52
2017-05-19T01:12:15.333Z,92.39
2017-05-19T01:12:55.797Z,91.72
2017-05-19T01:13:36.262Z,92.1
2017-05-19T01:14:16.710Z,92.44
2017-05-19T01:14:57.211Z,91.81
2017-05-19T01:15:37.695Z,92.29
2017-05-19T01:16:18.176Z,92.82
2017-05-19T01:16:58.623Z,92.82
2017-05-19T01:17:39.087Z,93.01
2017-05-19T01:18:19.558Z,92.72
2017-05-19T01:18:59.993Z,92.54
2017-05-19T01:19:40.424Z,93.97
2017-05-19T01:20:20.852Z,93.88
2017-05-19T01:21:01.310Z,94.74
2017-05-19T01:21:41.816Z,96.75
2017-05-19T01:22:22.231Z,96.94
2017-05-19T01:23:02.744Z,96.66
2017-05-19T01:23:43.192Z,96.94
2017-05-19T01:24:23.657Z,97.33
2017-05-19T01:25:04.150Z,98
2017-05-19T01:25:44.601Z,97.52
2017-05-19T01:26:25.079Z,97.42
2017-05-19T01:27:05.534Z,97.61
2017-05-19T01:27:46.030Z,98.38
2017-05-19T01:28:26.501Z,98.67
2017-05-19T01:29:06.945Z,98.67
2017-05-19T01:29:47.423Z,99.53
2017-05-19T01:30:27.861Z,99.24
2017-05-19T01:31:08.357Z,98.96
2017-05-19T01:31:48.863Z,97.42
2017-05-19T01:32:29.360Z,97.61
2017-05-19T01:33:09.873Z,98.1
2017-05-19T01:33:50.303Z,97.85
2017-05-19T01:34:30.747Z,97.95
2017-05-19T01:35:11.216Z,97.76
2017-05-19T01:35:51.686Z,96.8
2017-05-19T01:36:32.120Z,97.18
2017-05-19T01:37:12.577Z,96.32
2017-05-19T01:37:53.045Z,96.51
2017-05-19T01:38:33.534Z,96.8
2017-05-19T01:39:13.967Z,97.38
2017-05-19T01:39:54.438Z,97.18
2017-05-19T01:40:34.862Z,97.66
2017-05-19T01:41:15.346Z,97.38
2017-05-19T01:41:55.815Z,97.09
2017-05-19T01:42:36.262Z,97.18
2017-05-19T01:43:16.693Z,97.66
2017-05-19T01:43:57.149Z,97.76
2017-05-19T01:44:37.617Z,97.38
2017-05-19T01:45:18.099Z,97.47
2017-05-19T01:45:58.556Z,97.18
2017-05-19T01:46:39.269Z,97.18
2017-05-19T01:47:19.686Z,97.76
2017-05-19T01:48:00.180Z,97.76
2017-05-19T01:48:40.578Z,98.43
2017-05-19T01:49:21.028Z,98.14
2017-05-19T01:50:01.498Z,98.14
2017-05-19T01:50:42.015Z,99.01
2017-05-19T01:51:22.429Z,99.39
2017-05-19T01:52:02.931Z,98.81
2017-05-19T01:52:43.377Z,99.77
2017-05-19T01:53:23.788Z,99.48
2017-05-19T01:54:04.241Z,99.77
2017-05-19T01:54:44.709Z,99.39
2017-05-19T01:55:25.177Z,99.1
2017-05-19T01:56:05.625Z,98.72
2017-05-19T01:56:46.189Z,97.95
2017-05-19T01:57:26.682Z,97.85
2017-05-19T01:58:07.158Z,97.76
2017-05-19T01:58:47.537Z,97.85
2017-05-19T01:59:28.017Z,98.05
2017-05-19T02:00:08.472Z,97.85
2017-05-19T02:00:48.990Z,98.62
2017-05-19T02:01:29.472Z,99.48
2017-05-19T02:02:09.942Z,98.91
2017-05-19T02:02:50.393Z,98.91
2017-05-19T02:03:30.814Z,99.53
2017-05-19T02:04:11.279Z,99.01
2017-05-19T02:04:51.684Z,98.81
2017-05-19T02:05:32.130Z,98.14
2017-05-19T02:06:12.644Z,99.24
2017-05-19T02:06:53.059Z,99.63
2017-05-19T02:07:33.597Z,99.01
2017-05-19T02:08:14.009Z,99.01
2017-05-19T02:08:54.431Z,98.96
2017-05-19T02:09:34.864Z,99.19
2017-05-19T02:10:15.341Z,99.39
2017-05-19T02:10:55.791Z,99.39
2017-05-19T02:11:36.285Z,99.48
2017-05-19T02:12:16.729Z,98.91
2017-05-19T02:12:57.153Z,99.01
2017-05-19T02:13:37.613Z,99.1
2017-05-19T02:14:18.031Z,99.01
2017-05-19T02:14:58.461Z,99.48
2017-05-19T02:15:38.982Z,98.81
2017-05-19T02:16:19.507Z,98.81
2017-05-19T02:16:59.912Z,99.19
2017-05-19T02:17:40.336Z,99.96
2017-05-19T02:18:20.824Z,98.91
2017-05-19T02:19:01.260Z,98.81
2017-05-19T02:19:41.719Z,98.91
2017-05-19T02:20:22.193Z,99.01
2017-05-19T02:21:02.632Z,99.19
2017-05-19T02:21:43.175Z,99.19
2017-05-19T02:22:23.675Z,98.62
2017-05-19T02:23:04.125Z,98.62
2017-05-19T02:23:44.588Z,98.81
2017-05-19T02:24:25.040Z,99.01
2017-05-19T02:25:05.528Z,99.01
2017-05-19T02:25:45.956Z,99.48
2017-05-19T02:26:26.405Z,99.39
2017-05-19T02:27:06.857Z,99.1
2017-05-19T02:27:47.291Z,99.77
2017-05-19T02:28:27.759Z,99.87
2017-05-19T02:29:08.258Z,99.99
2017-05-19T02:29:48.620Z,99.99
2017-05-19T02:30:29.118Z,99.63
2017-05-19T02:31:09.515Z,99.29
2017-05-19T02:31:50.077Z,99.53
2017-05-19T02:32:30.466Z,99.77
2017-05-19T02:33:10.916Z,99.39
2017-05-19T02:33:51.356Z,98.91
2017-05-19T02:34:31.817Z,98.81
2017-05-19T02:35:12.279Z,98.72
2017-05-19T02:35:52.716Z,98.81
2017-05-19T02:36:33.735Z,99.1
2017-05-19T02:37:14.223Z,99.01
2017-05-19T02:37:54.657Z,98.72
2017-05-19T02:38:35.122Z,98.72
2017-05-19T02:39:15.537Z,98.81
2017-05-19T02:39:55.980Z,99.01
2017-05-19T02:40:36.402Z,99.39
2017-05-19T02:41:16.975Z,99.77
2017-05-19T02:41:57.388Z,99.77
2017-05-19T02:42:37.829Z,99.1
2017-05-19T02:43:18.305Z,99.77
2017-05-19T02:43:58.801Z,99.99
2017-05-19T02:44:39.239Z,99.99
2017-05-19T02:45:19.660Z,99.99
2017-05-19T02:46:00.121Z,99.99
2017-05-19T02:46:40.721Z,99.99
2017-05-19T02:47:21.122Z,99.1
2017-05-19T02:48:01.587Z,98.91
2017-05-19T02:48:42.091Z,99.48
2017-05-19T02:49:22.528Z,99.91
2017-05-19T02:50:03.026Z,99.82
2017-05-19T02:50:43.487Z,99.73
2017-05-19T02:51:23.932Z,99.99
2017-05-19T02:52:04.406Z,99.63
2017-05-19T02:52:44.960Z,99.63
2017-05-19T02:53:25.318Z,99.34
2017-05-19T02:54:05.757Z,99.15
2017-05-19T02:54:46.231Z,99.73
2017-05-19T02:55:26.699Z,99.91
2017-05-19T02:56:07.084Z,99.91
2017-05-19T02:56:47.537Z,99.39
2017-05-19T02:57:27.955Z,98.72
2017-05-19T02:58:08.376Z,98.81
2017-05-19T02:58:48.836Z,98.81
2017-05-19T02:59:29.335Z,99.19
2017-05-19T03:00:09.777Z,98.67
2017-05-19T03:00:50.203Z,99.1
2017-05-19T03:01:30.794Z,99.01
2017-05-19T03:02:11.187Z,99.01
2017-05-19T03:02:51.566Z,99.58
2017-05-19T03:03:32.035Z,99.99
2017-05-19T03:04:12.527Z,99.24
2017-05-19T03:04:53.062Z,98.81
2017-05-19T03:05:33.406Z,99.19
2017-05-19T03:06:13.894Z,98.81
2017-05-19T03:06:54.395Z,99.39
2017-05-19T03:07:34.824Z,99.87
2017-05-19T03:08:15.306Z,99.99
2017-05-19T03:08:55.733Z,99.87
2017-05-19T03:09:36.148Z,99.87
2017-05-19T03:10:16.654Z,99.99
2017-05-19T03:10:57.089Z,99.99
2017-05-19T03:11:37.585Z,99.68
2017-05-19T03:12:18.094Z,99.99
2017-05-19T03:12:58.482Z,99.99
2017-05-19T03:13:38.990Z,99.99
2017-05-19T03:14:19.441Z,99.99
2017-05-19T03:14:59.802Z,99.99
2017-05-19T03:15:40.329Z,99.39
2017-05-19T03:16:20.780Z,98.43
2017-05-19T03:17:01.150Z,98.81
2017-05-19T03:17:41.720Z,99.1
2017-05-19T03:18:22.218Z,98.52
2017-05-19T03:19:02.638Z,98.81
2017-05-19T03:19:43.159Z,98.81
2017-05-19T03:20:23.465Z,99.39
2017-05-19T03:21:03.922Z,99.87
2017-05-19T03:21:44.435Z,99.99
2017-05-19T03:22:24.879Z,99.99
2017-05-19T03:23:05.457Z,99.99
2017-05-19T03:23:45.930Z,99.99
2017-05-19T03:25:34.154Z,99.99
2017-05-19T03:26:14.547Z,99.99
2017-05-19T03:26:55.061Z,99.99
2017-05-19T03:27:35.604Z,99.99
2017-05-19T03:28:16.122Z,99.99
2017-05-19T03:28:56.740Z,99.99
2017-05-19T03:29:37.188Z,99.99
2017-05-19T03:30:17.598Z,99.99
2017-05-19T03:30:58.052Z,99.99
2017-05-19T03:31:38.506Z,99.99
2017-05-19T03:32:19.033Z,99.99
2017-05-19T03:32:59.495Z,99.99
2017-05-19T03:33:39.968Z,99.99
2017-05-19T03:35:36.624Z,99.99
2017-05-19T03:36:25.027Z,99.99
2017-05-19T03:37:13.497Z,99.99
2017-05-19T03:37:55.413Z,99.99
2017-05-19T03:38:35.892Z,99.99
2017-05-19T03:39:16.323Z,99.99
2017-05-19T03:39:56.851Z,99.99
2017-05-19T03:40:37.291Z,99.99
2017-05-19T03:41:17.780Z,99.99
2017-05-19T03:41:58.271Z,99.99
2017-05-19T03:42:38.691Z,99.99
2017-05-19T03:43:19.135Z,99.99
2017-05-19T03:43:59.598Z,99.99
2017-05-19T03:44:40.602Z,99.99
2017-05-19T03:45:21.126Z,99.99
2017-05-19T03:46:01.780Z,99.99
2017-05-19T03:46:42.219Z,99.99
2017-05-19T03:47:22.753Z,99.99
2017-05-19T03:48:03.464Z,99.99
2017-05-19T03:48:44.084Z,99.99
2017-05-19T03:49:24.737Z,99.99
2017-05-19T03:50:05.136Z,99.99
2017-05-19T03:50:45.496Z,99.99
2017-05-19T03:51:26.069Z,99.99
2017-05-19T03:52:06.513Z,99.99
2017-05-19T03:52:47.108Z,99.99
2017-05-19T03:53:27.488Z,99.99
2017-05-19T03:54:08.181Z,99.99
2017-05-19T03:54:48.635Z,99.99
2017-05-19T03:55:29.124Z,99.99
2017-05-19T03:56:09.654Z,99.99
2017-05-19T03:56:50.365Z,99.99
2017-05-19T03:57:31.011Z,99.99
2017-05-19T03:58:11.347Z,99.99
2017-05-19T03:58:51.925Z,99.99
2017-05-19T03:59:32.477Z,99.99
2017-05-19T04:00:12.964Z,99.99
2017-05-19T04:00:54.374Z,99.99
2017-05-19T04:01:35.057Z,99.99
2017-05-19T04:02:15.510Z,99.99
2017-05-19T04:02:56.595Z,99.99
2017-05-19T04:03:37.056Z,99.99
2017-05-19T04:04:17.681Z,99.99
2017-05-19T04:04:58.023Z,99.99
2017-05-19T04:05:38.584Z,99.99
2017-05-19T04:06:19.193Z,99.91
2017-05-19T04:07:00.172Z,99.99
2017-05-19T04:07:40.622Z,99.96
2017-05-19T04:08:21.078Z,99.99
2017-05-19T04:09:02.955Z,99.99
2017-05-19T04:09:43.587Z,99.68
2017-05-19T04:10:24.202Z,99.96
2017-05-19T04:11:05.014Z,99.99
2017-05-19T04:11:45.361Z,99.77
2017-05-19T04:12:26.209Z,99.91
2017-05-19T04:13:06.502Z,99.99
2017-05-19T04:13:47.250Z,99.99
2017-05-19T04:14:27.511Z,99.99
2017-05-19T04:15:08.057Z,99.99
2017-05-19T04:15:48.784Z,99.99
2017-05-19T04:16:29.130Z,99.99
2017-05-19T04:17:09.712Z,99.99
2017-05-19T04:17:50.190Z,99.99
2017-05-19T04:18:30.637Z,99.99
2017-05-19T04:19:11.092Z,99.96
2017-05-19T04:19:51.547Z,99.87
2017-05-19T04:20:32.165Z,99.39
2017-05-19T04:21:12.695Z,98.62
2017-05-19T04:21:54.169Z,99.87
2017-05-19T04:22:34.877Z,99.58
2017-05-19T04:23:15.360Z,99.99
2017-05-19T04:23:56.119Z,99.99
2017-05-19T04:24:36.545Z,99.99
2017-05-19T04:25:17.252Z,99.99
2017-05-19T04:25:58.017Z,99.99
2017-05-19T04:26:38.700Z,99.2
2017-05-19T04:27:19.351Z,99.29
2017-05-19T04:27:59.842Z,99.77
2017-05-19T04:28:41.222Z,99.2
2017-05-19T04:29:21.947Z,99.01
2017-05-19T04:30:02.406Z,99.1
2017-05-19T04:30:42.920Z,99.1
2017-05-19T04:31:23.342Z,99.1
2017-05-19T04:32:03.850Z,98.72
2017-05-19T04:32:44.263Z,98.62
2017-05-19T04:33:24.823Z,98.82
2017-05-19T04:34:05.462Z,98.62
2017-05-19T04:34:45.839Z,98.72
2017-05-19T04:35:26.504Z,99.1
2017-05-19T04:36:07.025Z,99.1
2017-05-19T04:36:47.788Z,99.29
2017-05-19T04:37:28.505Z,99.01
2017-05-19T04:38:09.677Z,99.01
2017-05-19T04:38:50.218Z,98.48
2017-05-19T04:39:31.673Z,98.33
2017-05-19T04:40:12.140Z,98.43
2017-05-19T04:40:52.678Z,98.62
2017-05-19T04:41:33.274Z,98.72
2017-05-19T04:42:13.782Z,98.91
2017-05-19T04:42:54.261Z,98.91
2017-05-19T04:43:35.519Z,98.57
2017-05-19T04:44:16.116Z,99.2
2017-05-19T04:44:56.512Z,98.62
2017-05-19T04:45:37.045Z,98.62
2017-05-19T04:46:17.774Z,98.82
2017-05-19T04:46:58.082Z,99.1
2017-05-19T04:47:38.526Z,98.91
2017-05-19T04:48:19.049Z,98.53
2017-05-19T04:50:10.278Z,99.2
2017-05-19T04:50:58.707Z,98.14
2017-05-19T04:51:47.376Z,98.53
2017-05-19T04:52:35.898Z,99.01
2017-05-19T04:53:24.803Z,98.24
2017-05-19T04:54:13.923Z,98.53
2017-05-19T04:55:02.728Z,99.58
2017-05-19T04:55:51.248Z,99.01
2017-05-19T04:56:39.929Z,99.29
2017-05-19T04:57:25.365Z,98.62
2017-05-19T04:58:05.650Z,99.01
2017-05-19T04:58:46.087Z,98.72
2017-05-19T04:59:26.675Z,98.91
2017-05-19T05:00:06.955Z,98.14
2017-05-19T05:00:47.395Z,98.14
2017-05-19T05:01:27.850Z,98.53
2017-05-19T05:02:08.299Z,98.91
2017-05-19T05:02:48.763Z,98.62
2017-05-19T05:03:29.265Z,98.62
2017-05-19T05:04:09.694Z,98.53
2017-05-19T05:04:50.164Z,98.33
2017-05-19T05:05:30.592Z,98.53
2017-05-19T05:06:11.048Z,98.43
2017-05-19T05:06:51.528Z,98.82
2017-05-19T05:07:31.963Z,98.72
2017-05-19T05:08:12.402Z,98.33
2017-05-19T05:08:52.874Z,98.43
2017-05-19T05:09:33.313Z,98.43
2017-05-19T05:10:13.784Z,98.62
2017-05-19T05:10:54.261Z,98.53
2017-05-19T05:11:34.759Z,98.53
2017-05-19T05:12:15.174Z,98.43
2017-05-19T05:12:55.632Z,98.14
2017-05-19T05:13:36.098Z,98.43
2017-05-19T05:14:16.543Z,98.33
2017-05-19T05:14:56.985Z,97.66
2017-05-19T05:15:37.474Z,98.33
2017-05-19T05:16:18.209Z,97.76
2017-05-19T05:16:58.630Z,98.14
2017-05-19T05:17:39.104Z,98.05
2017-05-19T05:18:19.565Z,97.95
2017-05-19T05:19:00.013Z,97.95
2017-05-19T05:19:40.481Z,98.62
2017-05-19T05:20:20.949Z,98.82
2017-05-19T05:21:01.433Z,97.71
2017-05-19T05:21:41.986Z,97.76
2017-05-19T05:22:22.441Z,97.56
2017-05-19T05:23:02.949Z,97.66
2017-05-19T05:23:43.394Z,97.38
2017-05-19T05:24:23.885Z,98.43
2017-05-19T05:25:04.318Z,98.53
2017-05-19T05:25:44.801Z,98.82
2017-05-19T05:26:25.294Z,98.43
2017-05-19T05:27:05.755Z,97.28
2017-05-19T05:27:46.152Z,97.38
2017-05-19T05:28:26.662Z,96.8
2017-05-19T05:29:07.112Z,96.13
2017-05-19T05:29:47.591Z,96.8
2017-05-19T05:30:28.038Z,97.19
2017-05-19T05:31:08.512Z,96.51
2017-05-19T05:31:49.012Z,95.84
2017-05-19T05:32:29.491Z,96.32
2017-05-19T05:33:10.549Z,96.03
2017-05-19T05:33:51.012Z,96.22
2017-05-19T05:36:03.856Z,94.4
2017-05-19T05:36:44.369Z,95.55
2017-05-19T05:37:25.680Z,95.79
2017-05-19T05:38:06.144Z,95.79
2017-05-19T05:38:46.631Z,95.31
2017-05-19T05:39:27.092Z,94.93
2017-05-19T05:41:20.002Z,95.79
2017-05-19T05:42:00.317Z,95.51
2017-05-19T05:42:40.792Z,95.79
2017-05-19T05:43:21.251Z,96.37
2017-05-19T05:44:01.689Z,95.65
2017-05-19T05:44:42.171Z,95.65
2017-05-19T05:45:22.629Z,95.65
2017-05-19T05:46:03.098Z,96.13
2017-05-19T05:48:20.974Z,96.13
2017-05-19T05:49:01.402Z,95.94
2017-05-19T05:49:41.875Z,96.89
2017-05-19T05:50:22.343Z,97.76
2017-05-19T05:51:02.778Z,96.42
2017-05-19T05:51:43.299Z,97.18
2017-05-19T05:52:23.779Z,97.56
2017-05-19T05:53:04.246Z,97.85
2017-05-19T05:53:44.685Z,97.18
2017-05-19T05:54:25.154Z,97.38
2017-05-19T05:55:05.620Z,97.76
2017-05-19T05:55:46.101Z,96.42
2017-05-19T05:56:26.545Z,96.13
2017-05-19T05:57:07.008Z,96.42
2017-05-19T05:59:19.800Z,98.14
2017-05-19T06:00:00.232Z,98.81
2017-05-19T06:00:40.704Z,98.81
2017-05-19T06:01:21.345Z,98.33
2017-05-19T06:02:01.893Z,98.19
2017-05-19T06:02:42.543Z,98.96
2017-05-19T06:03:23.087Z,98.1
2017-05-19T06:04:03.632Z,98.28
2017-05-19T06:04:44.077Z,98.47
2017-05-19T06:05:24.562Z,99.34
2017-05-19T06:06:05.028Z,98.38
2017-05-19T06:06:45.503Z,99.24
2017-05-19T06:07:25.969Z,99.34
2017-05-19T06:08:06.412Z,98.57
2017-05-19T06:08:46.881Z,98.38
2017-05-19T06:09:27.375Z,98.86
2017-05-19T06:10:07.862Z,99.34
2017-05-19T06:10:48.301Z,99.43
2017-05-19T06:11:28.783Z,99.91
2017-05-19T06:12:09.253Z,99.99
2017-05-19T06:12:49.714Z,99.99
2017-05-19T06:13:30.177Z,99.99
2017-05-19T06:14:10.637Z,99.99
2017-05-19T06:14:51.102Z,99.99
2017-05-19T06:15:31.547Z,99.99
2017-05-19T06:16:12.005Z,99.99
2017-05-19T06:16:52.503Z,99.99
2017-05-19T06:17:32.994Z,99.99
2017-05-19T06:18:13.448Z,99.99
2017-05-19T06:18:53.920Z,99.99
2017-05-19T06:19:34.382Z,99.99
2017-05-19T06:20:14.822Z,99.99
2017-05-19T06:20:55.296Z,99.99
2017-05-19T06:21:35.784Z,99.99
2017-05-19T06:22:16.263Z,99.99
2017-05-19T06:22:56.738Z,99.99
2017-05-19T06:23:37.174Z,99.99
2017-05-19T06:25:29.759Z,99.99
2017-05-19T06:26:10.237Z,99.99
2017-05-19T06:26:50.716Z,99.99
2017-05-19T06:27:31.725Z,99.99
2017-05-19T06:28:12.185Z,99.99
2017-05-19T06:30:24.935Z,99.99
2017-05-19T06:31:05.423Z,99.99
2017-05-19T06:31:45.902Z,99.99
2017-05-19T06:32:26.399Z,99.99
2017-05-19T06:33:06.920Z,99.99
2017-05-19T06:33:47.411Z,99.99
2017-05-19T06:34:27.938Z,99.99
2017-05-19T06:35:08.346Z,99.99
2017-05-19T06:35:48.822Z,99.99
2017-05-19T06:36:29.300Z,99.99
2017-05-19T06:37:09.790Z,99.99
2017-05-19T06:37:50.324Z,99.99
2017-05-19T06:38:30.824Z,99.99
2017-05-19T06:39:11.325Z,99.99
2017-05-19T06:39:51.798Z,99.99
2017-05-19T06:40:32.237Z,99.99
2017-05-19T06:41:12.699Z,99.99
2017-05-19T06:41:53.159Z,99.99
2017-05-19T06:42:33.576Z,99.99
2017-05-19T06:43:14.034Z,99.99
2017-05-19T06:43:54.493Z,99.99
2017-05-19T06:44:34.971Z,99.99
2017-05-19T06:46:52.787Z,99.99
2017-05-19T06:47:33.272Z,99.99
2017-05-19T06:48:13.699Z,99.99
2017-05-19T06:48:54.144Z,99.99
2017-05-19T06:49:34.596Z,99.99
2017-05-19T06:50:15.594Z,99.99
2017-05-19T06:50:56.659Z,99.99
2017-05-19T06:51:37.011Z,99.99
2017-05-19T06:52:17.470Z,99.99
2017-05-19T06:52:57.923Z,99.99
2017-05-19T06:53:40.327Z,99.99
2017-05-19T06:54:20.777Z,99.99
2017-05-19T06:55:01.227Z,99.99
2017-05-19T06:55:41.687Z,99.99
2017-05-19T06:56:22.136Z,99.99
2017-05-19T06:57:02.606Z,99.99
2017-05-19T06:57:43.021Z,99.99
2017-05-19T06:58:23.483Z,99.99
2017-05-19T06:59:03.931Z,99.99
2017-05-19T06:59:44.401Z,99.99
2017-05-19T07:02:02.321Z,99.99
2017-05-19T07:03:59.967Z,99.99
2017-05-19T07:04:40.431Z,99.67
2017-05-19T07:05:20.903Z,99.67
2017-05-19T07:06:01.397Z,99.67
2017-05-19T07:06:41.848Z,99.99
2017-05-19T07:07:22.299Z,99.96
2017-05-19T07:09:14.890Z,99.99
2017-05-19T07:09:55.317Z,99.99
2017-05-19T07:10:35.841Z,99.67
2017-05-19T07:12:48.604Z,99.99
2017-05-19T07:13:29.066Z,99.99
2017-05-19T07:14:09.591Z,99.99
2017-05-19T07:14:50.057Z,99.99
2017-05-19T07:15:30.496Z,99.99
2017-05-19T07:16:10.963Z,99.99
2017-05-19T07:17:58.661Z,99.99
2017-05-19T07:18:39.151Z,99.99
2017-05-19T07:19:19.662Z,99.99
2017-05-19T07:20:00.117Z,99.99
2017-05-19T07:20:40.650Z,99.99
2017-05-19T07:21:21.175Z,99.99
2017-05-19T07:22:01.673Z,99.99
2017-05-19T07:22:42.157Z,99.99
2017-05-19T07:23:22.656Z,99.99
2017-05-19T07:24:03.133Z,99.99
2017-05-19T07:24:43.612Z,99.99
2017-05-19T07:25:24.150Z,99.99
2017-05-19T07:26:04.625Z,99.99
2017-05-19T07:26:45.130Z,99.99
2017-05-19T07:27:25.609Z,99.99
2017-05-19T07:28:06.111Z,99.99
2017-05-19T07:28:46.620Z,99.99
2017-05-19T07:29:27.151Z,99.99
2017-05-19T07:30:07.635Z,99.99
2017-05-19T07:30:48.193Z,99.99
2017-05-19T07:31:28.723Z,99.99
2017-05-19T07:32:09.221Z,99.99
2017-05-19T07:32:49.763Z,99.99
2017-05-19T07:33:30.942Z,99.99
2017-05-19T07:34:11.507Z,99.99
2017-05-19T07:34:52.027Z,99.99
2017-05-19T07:35:32.502Z,99.99
2017-05-19T07:37:26.038Z,99.99
2017-05-19T07:38:06.575Z,99.99
2017-05-19T07:38:47.095Z,99.99
2017-05-19T07:39:27.612Z,99.99
2017-05-19T07:40:08.172Z,99.99
2017-05-19T07:40:48.706Z,99.99
2017-05-19T07:41:29.167Z,99.99
2017-05-19T07:42:09.689Z,99.99
2017-05-19T07:42:50.205Z,99.99
2017-05-19T07:43:30.709Z,99.99
2017-05-19T07:44:11.263Z,99.99
2017-05-19T07:46:09.411Z,99.99
2017-05-19T07:46:49.782Z,99.99
2017-05-19T07:47:30.276Z,99.99
2017-05-19T07:48:10.770Z,99.99
2017-05-19T07:48:51.310Z,99.99
2017-05-19T07:49:31.771Z,99.99
2017-05-19T07:50:12.352Z,99.99
2017-05-19T07:50:52.829Z,99.99
2017-05-19T07:51:33.336Z,99.99
2017-05-19T07:52:13.852Z,99.99
2017-05-19T07:52:54.398Z,99.99
2017-05-19T07:53:35.005Z,99.99
2017-05-19T07:54:15.625Z,99.99
2017-05-19T07:54:56.113Z,99.99
2017-05-19T07:55:36.577Z,99.99
2017-05-19T07:56:17.057Z,99.99
2017-05-19T07:56:57.539Z,99.99
2017-05-19T07:57:38.188Z,99.99
2017-05-19T07:58:18.642Z,99.99
2017-05-19T08:00:06.125Z,99.99
2017-05-19T08:00:46.596Z,99.99
2017-05-19T08:01:27.154Z,99.99
2017-05-19T08:03:25.026Z,99.99
2017-05-19T08:04:05.477Z,99.99
2017-05-19T08:04:45.960Z,99.99
2017-05-19T08:05:26.491Z,99.99
2017-05-19T08:06:06.983Z,99.99
2017-05-19T08:06:47.482Z,99.99
2017-05-19T08:07:27.955Z,99.99
2017-05-19T08:09:40.629Z,99.99
2017-05-19T08:10:21.099Z,99.99
2017-05-19T08:11:01.603Z,99.99
2017-05-19T08:11:42.097Z,99.99
2017-05-19T08:12:22.566Z,99.99
2017-05-19T08:13:03.106Z,99.99
2017-05-19T08:13:43.589Z,99.99
2017-05-19T08:14:24.041Z,99.99
2017-05-19T08:15:04.563Z,99.99
2017-05-19T08:15:45.012Z,99.99
2017-05-19T08:16:25.466Z,99.99
2017-05-19T08:17:05.918Z,99.99
2017-05-19T08:17:46.421Z,99.99
2017-05-19T08:18:27.001Z,99.99
2017-05-19T08:19:07.438Z,99.99
2017-05-19T08:19:47.890Z,99.99
2017-05-19T08:20:28.417Z,99.99
2017-05-19T08:21:08.875Z,99.99
2017-05-19T08:21:49.324Z,99.99
2017-05-19T08:23:41.898Z,99.99
2017-05-19T08:24:22.392Z,99.99
2017-05-19T08:25:02.873Z,99.99
2017-05-19T08:25:43.366Z,99.99
2017-05-19T08:26:23.889Z,99.99
2017-05-19T08:27:04.372Z,99.99
2017-05-19T08:27:44.855Z,99.99
2017-05-19T08:28:25.321Z,99.99
2017-05-19T08:30:23.032Z,99.99
2017-05-19T08:31:03.502Z,99.99
2017-05-19T08:31:44.028Z,99.99
2017-05-19T08:32:24.499Z,99.99
2017-05-19T08:33:04.981Z,99.99
2017-05-19T08:33:46.248Z,99.99
2017-05-19T08:34:27.058Z,99.99
2017-05-19T08:35:07.652Z,99.99
2017-05-19T08:35:48.192Z,99.99
2017-05-19T08:36:28.707Z,99.99
2017-05-19T08:37:09.211Z,99.99
2017-05-19T08:37:49.791Z,99.99
2017-05-19T08:39:47.497Z,99.99
2017-05-19T08:40:27.986Z,99.99
2017-05-19T08:41:08.546Z,99.99
2017-05-19T08:41:49.122Z,99.99
2017-05-19T08:42:29.613Z,99.99
2017-05-19T08:43:10.190Z,99.99
2017-05-19T08:43:50.668Z,99.99
2017-05-19T08:44:31.148Z,99.99
2017-05-19T08:46:28.763Z,99.99
2017-05-19T08:47:09.257Z,99.99
2017-05-19T08:47:49.745Z,99.99
2017-05-19T08:48:30.208Z,99.99
2017-05-19T08:49:10.714Z,99.99
2017-05-19T08:49:51.187Z,99.99
2017-05-19T08:52:03.980Z,99.99
2017-05-19T08:52:44.444Z,99.99
2017-05-19T08:53:24.942Z,99.99
2017-05-19T08:54:05.487Z,99.99
2017-05-19T08:54:45.992Z,99.99
2017-05-19T08:55:26.503Z,99.99
2017-05-19T08:57:39.154Z,99.99
2017-05-19T08:58:19.652Z,99.99
2017-05-19T08:59:00.118Z,99.99
2017-05-19T08:59:40.592Z,99.99
2017-05-19T09:00:21.061Z,99.99
2017-05-19T09:01:01.550Z,99.99
2017-05-19T09:02:54.196Z,99.99
2017-05-19T09:03:34.615Z,99.99
2017-05-19T09:04:15.071Z,99.99
2017-05-19T09:06:27.790Z,99.99
2017-05-19T09:07:08.252Z,99.99
2017-05-19T09:07:48.730Z,99.99
2017-05-19T09:08:29.168Z,99.99
2017-05-19T09:09:09.629Z,99.99
2017-05-19T09:09:50.112Z,99.99
2017-05-19T09:10:30.630Z,99.99
2017-05-19T09:11:11.144Z,99.99
2017-05-19T09:11:51.598Z,99.99
2017-05-19T09:13:44.135Z,99.99
2017-05-19T09:14:24.597Z,99.99
2017-05-19T09:15:05.042Z,99.99
2017-05-19T09:15:45.509Z,99.99
2017-05-19T09:16:25.980Z,99.99
2017-05-19T09:17:06.422Z,99.99
2017-05-19T09:17:46.922Z,99.99
2017-05-19T09:18:27.550Z,99.99
2017-05-19T09:19:08.037Z,99.99
2017-05-19T09:19:48.477Z,99.99
2017-05-19T09:22:06.697Z,99.99
2017-05-19T09:22:47.135Z,99.99
2017-05-19T09:23:27.597Z,99.99
2017-05-19T09:24:08.019Z,99.99
2017-05-19T09:24:48.495Z,99.99
2017-05-19T09:25:28.961Z,99.99
2017-05-19T09:26:09.437Z,99.99
2017-05-19T09:26:49.905Z,99.99
2017-05-19T09:27:30.519Z,99.99